sensor_id;sensor_type;location;lat;lon;timestamp;P1;durP1;ratioP1;P2;durP2;ratioP2
9102;SDS011;4587;51.434;6.788;2024-01-30T00:01:14;10.03;;;7.00;;
9102;SDS011;4587;51.434;6.788;2024-01-30T00:03:40;9.97;;;6.90;;
9102;SDS011;4587;51.434;6.788;2024-01-30T00:06:06;9.13;;;7.30;;
9102;SDS011;4587;51.434;6.788;2024-01-30T00:08:32;9.73;;;7.73;;
9102;SDS011;4587;51.434;6.788;2024-01-30T00:10:58;12.53;;;7.80;;
9102;SDS011;4587;51.434;6.788;2024-01-30T00:13:24;9.67;;;7.43;;
9102;SDS011;4587;51.434;6.788;2024-01-30T00:15:49;12.57;;;8.13;;
9102;SDS011;4587;51.434;6.788;2024-01-30T00:18:15;10.17;;;7.50;;
9102;SDS011;4587;51.434;6.788;2024-01-30T00:20:41;11.47;;;7.83;;
9102;SDS011;4587;51.434;6.788;2024-01-30T00:23:07;9.10;;;7.63;;
9102;SDS011;4587;51.434;6.788;2024-01-30T00:25:33;11.60;;;7.80;;
9102;SDS011;4587;51.434;6.788;2024-01-30T00:27:59;10.63;;;7.53;;
9102;SDS011;4587;51.434;6.788;2024-01-30T00:30:24;11.73;;;8.00;;
9102;SDS011;4587;51.434;6.788;2024-01-30T00:32:50;9.47;;;7.63;;
9102;SDS011;4587;51.434;6.788;2024-01-30T00:35:15;11.60;;;7.90;;
9102;SDS011;4587;51.434;6.788;2024-01-30T00:37:41;9.07;;;7.37;;
9102;SDS011;4587;51.434;6.788;2024-01-30T00:40:07;8.10;;;7.30;;
9102;SDS011;4587;51.434;6.788;2024-01-30T00:42:35;11.37;;;8.13;;
9102;SDS011;4587;51.434;6.788;2024-01-30T00:45:01;11.67;;;7.70;;
9102;SDS011;4587;51.434;6.788;2024-01-30T00:47:26;10.33;;;7.50;;
9102;SDS011;4587;51.434;6.788;2024-01-30T00:49:52;13.20;;;8.20;;
9102;SDS011;4587;51.434;6.788;2024-01-30T00:52:17;11.67;;;7.67;;
9102;SDS011;4587;51.434;6.788;2024-01-30T00:54:43;11.13;;;7.53;;
9102;SDS011;4587;51.434;6.788;2024-01-30T00:57:08;8.83;;;7.90;;
9102;SDS011;4587;51.434;6.788;2024-01-30T00:59:34;8.93;;;7.63;;
9102;SDS011;4587;51.434;6.788;2024-01-30T01:01:59;9.17;;;8.17;;
9102;SDS011;4587;51.434;6.788;2024-01-30T01:04:25;9.73;;;8.17;;
9102;SDS011;4587;51.434;6.788;2024-01-30T01:06:51;11.93;;;8.43;;
9102;SDS011;4587;51.434;6.788;2024-01-30T01:09:17;12.03;;;8.00;;
9102;SDS011;4587;51.434;6.788;2024-01-30T01:11:43;9.27;;;8.27;;
9102;SDS011;4587;51.434;6.788;2024-01-30T01:14:08;10.93;;;8.03;;
9102;SDS011;4587;51.434;6.788;2024-01-30T01:16:34;13.77;;;8.80;;
9102;SDS011;4587;51.434;6.788;2024-01-30T01:18:59;9.80;;;7.93;;
9102;SDS011;4587;51.434;6.788;2024-01-30T01:21:25;9.40;;;7.50;;
9102;SDS011;4587;51.434;6.788;2024-01-30T01:23:51;9.70;;;8.00;;
9102;SDS011;4587;51.434;6.788;2024-01-30T01:26:16;10.47;;;7.67;;
9102;SDS011;4587;51.434;6.788;2024-01-30T01:28:42;11.63;;;7.93;;
9102;SDS011;4587;51.434;6.788;2024-01-30T01:31:07;12.53;;;8.37;;
9102;SDS011;4587;51.434;6.788;2024-01-30T01:33:34;9.63;;;7.83;;
9102;SDS011;4587;51.434;6.788;2024-01-30T01:36:00;12.83;;;8.67;;
9102;SDS011;4587;51.434;6.788;2024-01-30T01:38:29;11.90;;;7.97;;
9102;SDS011;4587;51.434;6.788;2024-01-30T01:40:54;9.40;;;7.80;;
9102;SDS011;4587;51.434;6.788;2024-01-30T01:43:20;10.17;;;8.50;;
9102;SDS011;4587;51.434;6.788;2024-01-30T01:45:45;9.80;;;8.33;;
9102;SDS011;4587;51.434;6.788;2024-01-30T01:48:11;10.40;;;8.70;;
9102;SDS011;4587;51.434;6.788;2024-01-30T01:50:37;12.50;;;8.67;;
9102;SDS011;4587;51.434;6.788;2024-01-30T01:53:05;11.00;;;8.40;;
9102;SDS011;4587;51.434;6.788;2024-01-30T01:55:32;9.40;;;8.30;;
9102;SDS011;4587;51.434;6.788;2024-01-30T01:58:00;11.20;;;8.20;;
9102;SDS011;4587;51.434;6.788;2024-01-30T02:00:25;10.13;;;8.03;;
9102;SDS011;4587;51.434;6.788;2024-01-30T02:02:51;11.53;;;8.37;;
9102;SDS011;4587;51.434;6.788;2024-01-30T02:05:19;9.83;;;8.07;;
9102;SDS011;4587;51.434;6.788;2024-01-30T02:07:45;10.87;;;8.67;;
9102;SDS011;4587;51.434;6.788;2024-01-30T02:10:11;12.07;;;7.70;;
9102;SDS011;4587;51.434;6.788;2024-01-30T02:12:37;10.37;;;8.07;;
9102;SDS011;4587;51.434;6.788;2024-01-30T02:15:03;10.77;;;8.67;;
9102;SDS011;4587;51.434;6.788;2024-01-30T02:17:30;12.40;;;8.43;;
9102;SDS011;4587;51.434;6.788;2024-01-30T02:19:55;10.40;;;8.13;;
9102;SDS011;4587;51.434;6.788;2024-01-30T02:22:21;9.93;;;8.47;;
9102;SDS011;4587;51.434;6.788;2024-01-30T02:24:48;12.57;;;8.10;;
9102;SDS011;4587;51.434;6.788;2024-01-30T02:27:14;12.07;;;8.20;;
9102;SDS011;4587;51.434;6.788;2024-01-30T02:29:40;9.97;;;7.83;;
9102;SDS011;4587;51.434;6.788;2024-01-30T02:32:05;12.77;;;8.33;;
9102;SDS011;4587;51.434;6.788;2024-01-30T02:34:32;12.50;;;8.20;;
9102;SDS011;4587;51.434;6.788;2024-01-30T02:36:58;10.77;;;8.17;;
9102;SDS011;4587;51.434;6.788;2024-01-30T02:39:23;12.50;;;8.30;;
9102;SDS011;4587;51.434;6.788;2024-01-30T02:41:49;10.73;;;8.10;;
9102;SDS011;4587;51.434;6.788;2024-01-30T02:44:14;9.93;;;8.23;;
9102;SDS011;4587;51.434;6.788;2024-01-30T02:46:40;11.53;;;7.90;;
9102;SDS011;4587;51.434;6.788;2024-01-30T02:49:05;9.00;;;7.43;;
9102;SDS011;4587;51.434;6.788;2024-01-30T02:51:31;8.93;;;7.90;;
9102;SDS011;4587;51.434;6.788;2024-01-30T02:53:57;9.43;;;8.07;;
9102;SDS011;4587;51.434;6.788;2024-01-30T02:56:22;11.43;;;8.37;;
9102;SDS011;4587;51.434;6.788;2024-01-30T02:58:48;9.27;;;8.20;;
9102;SDS011;4587;51.434;6.788;2024-01-30T03:01:13;10.03;;;8.30;;
9102;SDS011;4587;51.434;6.788;2024-01-30T03:03:39;9.10;;;7.93;;
9102;SDS011;4587;51.434;6.788;2024-01-30T03:06:05;10.67;;;8.33;;
9102;SDS011;4587;51.434;6.788;2024-01-30T03:08:32;12.07;;;7.83;;
9102;SDS011;4587;51.434;6.788;2024-01-30T03:10:57;13.47;;;8.07;;
9102;SDS011;4587;51.434;6.788;2024-01-30T03:13:23;9.00;;;7.70;;
9102;SDS011;4587;51.434;6.788;2024-01-30T03:15:50;8.87;;;7.40;;
9102;SDS011;4587;51.434;6.788;2024-01-30T03:18:15;10.57;;;7.77;;
9102;SDS011;4587;51.434;6.788;2024-01-30T03:20:41;10.53;;;7.77;;
9102;SDS011;4587;51.434;6.788;2024-01-30T03:23:06;9.40;;;7.47;;
9102;SDS011;4587;51.434;6.788;2024-01-30T03:25:32;9.47;;;7.43;;
9102;SDS011;4587;51.434;6.788;2024-01-30T03:27:57;9.07;;;7.40;;
9102;SDS011;4587;51.434;6.788;2024-01-30T03:30:23;9.27;;;7.33;;
9102;SDS011;4587;51.434;6.788;2024-01-30T03:32:48;9.53;;;7.47;;
9102;SDS011;4587;51.434;6.788;2024-01-30T03:35:14;11.57;;;7.33;;
9102;SDS011;4587;51.434;6.788;2024-01-30T03:37:40;9.07;;;7.00;;
9102;SDS011;4587;51.434;6.788;2024-01-30T03:40:05;11.53;;;7.50;;
9102;SDS011;4587;51.434;6.788;2024-01-30T03:42:31;8.30;;;7.27;;
9102;SDS011;4587;51.434;6.788;2024-01-30T03:44:57;9.67;;;7.67;;
9102;SDS011;4587;51.434;6.788;2024-01-30T03:47:22;10.20;;;8.20;;
9102;SDS011;4587;51.434;6.788;2024-01-30T03:49:48;9.03;;;7.73;;
9102;SDS011;4587;51.434;6.788;2024-01-30T03:52:13;9.43;;;7.77;;
9102;SDS011;4587;51.434;6.788;2024-01-30T03:54:39;13.00;;;7.80;;
9102;SDS011;4587;51.434;6.788;2024-01-30T03:57:05;10.13;;;7.80;;
9102;SDS011;4587;51.434;6.788;2024-01-30T03:59:30;10.43;;;7.90;;
9102;SDS011;4587;51.434;6.788;2024-01-30T04:01:56;9.23;;;7.17;;
9102;SDS011;4587;51.434;6.788;2024-01-30T04:04:21;10.93;;;8.10;;
9102;SDS011;4587;51.434;6.788;2024-01-30T04:06:48;11.33;;;7.37;;
9102;SDS011;4587;51.434;6.788;2024-01-30T04:09:13;8.93;;;7.07;;
9102;SDS011;4587;51.434;6.788;2024-01-30T04:11:39;7.57;;;6.63;;
9102;SDS011;4587;51.434;6.788;2024-01-30T04:14:05;9.10;;;6.83;;
9102;SDS011;4587;51.434;6.788;2024-01-30T04:16:30;11.80;;;7.43;;
9102;SDS011;4587;51.434;6.788;2024-01-30T04:18:56;11.60;;;7.83;;
9102;SDS011;4587;51.434;6.788;2024-01-30T04:21:22;9.57;;;7.73;;
9102;SDS011;4587;51.434;6.788;2024-01-30T04:23:48;9.73;;;7.43;;
9102;SDS011;4587;51.434;6.788;2024-01-30T04:26:14;9.57;;;7.43;;
9102;SDS011;4587;51.434;6.788;2024-01-30T04:28:45;14.27;;;7.63;;
9102;SDS011;4587;51.434;6.788;2024-01-30T04:31:11;15.13;;;7.63;;
9102;SDS011;4587;51.434;6.788;2024-01-30T04:33:37;9.03;;;6.83;;
9102;SDS011;4587;51.434;6.788;2024-01-30T04:36:02;9.00;;;7.07;;
9102;SDS011;4587;51.434;6.788;2024-01-30T04:38:28;12.33;;;7.23;;
9102;SDS011;4587;51.434;6.788;2024-01-30T04:40:54;8.67;;;7.20;;
9102;SDS011;4587;51.434;6.788;2024-01-30T04:43:20;9.10;;;6.80;;
9102;SDS011;4587;51.434;6.788;2024-01-30T04:45:45;9.17;;;6.87;;
9102;SDS011;4587;51.434;6.788;2024-01-30T04:48:11;9.67;;;7.63;;
9102;SDS011;4587;51.434;6.788;2024-01-30T04:50:36;9.77;;;7.27;;
9102;SDS011;4587;51.434;6.788;2024-01-30T04:53:02;9.47;;;6.97;;
9102;SDS011;4587;51.434;6.788;2024-01-30T04:55:27;11.10;;;7.30;;
9102;SDS011;4587;51.434;6.788;2024-01-30T04:57:53;9.77;;;7.13;;
9102;SDS011;4587;51.434;6.788;2024-01-30T05:00:18;10.20;;;7.10;;
9102;SDS011;4587;51.434;6.788;2024-01-30T05:02:44;10.60;;;7.00;;
9102;SDS011;4587;51.434;6.788;2024-01-30T05:05:10;8.80;;;6.90;;
9102;SDS011;4587;51.434;6.788;2024-01-30T05:07:36;9.70;;;6.67;;
9102;SDS011;4587;51.434;6.788;2024-01-30T05:10:02;9.83;;;7.03;;
9102;SDS011;4587;51.434;6.788;2024-01-30T05:12:28;8.33;;;6.90;;
9102;SDS011;4587;51.434;6.788;2024-01-30T05:14:53;10.47;;;7.57;;
9102;SDS011;4587;51.434;6.788;2024-01-30T05:17:19;9.73;;;7.00;;
9102;SDS011;4587;51.434;6.788;2024-01-30T05:19:45;8.53;;;6.50;;
9102;SDS011;4587;51.434;6.788;2024-01-30T05:22:10;7.97;;;6.43;;
9102;SDS011;4587;51.434;6.788;2024-01-30T05:24:40;9.57;;;6.70;;
9102;SDS011;4587;51.434;6.788;2024-01-30T05:27:06;11.03;;;7.00;;
9102;SDS011;4587;51.434;6.788;2024-01-30T05:29:32;8.13;;;6.23;;
9102;SDS011;4587;51.434;6.788;2024-01-30T05:31:58;9.20;;;6.53;;
9102;SDS011;4587;51.434;6.788;2024-01-30T05:34:23;7.87;;;6.57;;
9102;SDS011;4587;51.434;6.788;2024-01-30T05:36:49;9.33;;;6.73;;
9102;SDS011;4587;51.434;6.788;2024-01-30T05:39:14;8.67;;;6.83;;
9102;SDS011;4587;51.434;6.788;2024-01-30T05:41:40;9.63;;;6.83;;
9102;SDS011;4587;51.434;6.788;2024-01-30T05:44:06;7.57;;;6.77;;
9102;SDS011;4587;51.434;6.788;2024-01-30T05:46:31;9.73;;;6.53;;
9102;SDS011;4587;51.434;6.788;2024-01-30T05:48:57;10.90;;;6.60;;
9102;SDS011;4587;51.434;6.788;2024-01-30T05:51:22;7.63;;;6.53;;
9102;SDS011;4587;51.434;6.788;2024-01-30T05:53:48;13.67;;;7.00;;
9102;SDS011;4587;51.434;6.788;2024-01-30T05:56:13;9.30;;;7.40;;
9102;SDS011;4587;51.434;6.788;2024-01-30T05:58:39;9.33;;;7.00;;
9102;SDS011;4587;51.434;6.788;2024-01-30T06:01:08;8.90;;;6.83;;
9102;SDS011;4587;51.434;6.788;2024-01-30T06:03:34;8.30;;;6.80;;
9102;SDS011;4587;51.434;6.788;2024-01-30T06:05:59;10.00;;;6.80;;
9102;SDS011;4587;51.434;6.788;2024-01-30T06:08:25;10.30;;;6.90;;
9102;SDS011;4587;51.434;6.788;2024-01-30T06:10:50;9.50;;;6.90;;
9102;SDS011;4587;51.434;6.788;2024-01-30T06:13:16;8.97;;;7.10;;
9102;SDS011;4587;51.434;6.788;2024-01-30T06:15:41;8.93;;;6.47;;
9102;SDS011;4587;51.434;6.788;2024-01-30T06:18:07;9.00;;;6.93;;
9102;SDS011;4587;51.434;6.788;2024-01-30T06:20:33;8.53;;;6.87;;
9102;SDS011;4587;51.434;6.788;2024-01-30T06:22:59;8.40;;;6.70;;
9102;SDS011;4587;51.434;6.788;2024-01-30T06:25:24;8.53;;;6.90;;
9102;SDS011;4587;51.434;6.788;2024-01-30T06:27:50;9.90;;;7.10;;
9102;SDS011;4587;51.434;6.788;2024-01-30T06:30:16;10.27;;;7.10;;
9102;SDS011;4587;51.434;6.788;2024-01-30T06:32:41;8.27;;;6.27;;
9102;SDS011;4587;51.434;6.788;2024-01-30T06:35:07;11.00;;;7.10;;
9102;SDS011;4587;51.434;6.788;2024-01-30T06:37:33;8.30;;;7.40;;
9102;SDS011;4587;51.434;6.788;2024-01-30T06:39:58;14.20;;;7.17;;
9102;SDS011;4587;51.434;6.788;2024-01-30T06:42:24;9.40;;;7.10;;
9102;SDS011;4587;51.434;6.788;2024-01-30T06:44:49;8.87;;;6.80;;
9102;SDS011;4587;51.434;6.788;2024-01-30T06:47:15;8.43;;;7.20;;
9102;SDS011;4587;51.434;6.788;2024-01-30T06:49:40;10.13;;;6.80;;
9102;SDS011;4587;51.434;6.788;2024-01-30T06:52:07;8.63;;;6.70;;
9102;SDS011;4587;51.434;6.788;2024-01-30T06:54:33;9.03;;;6.63;;
9102;SDS011;4587;51.434;6.788;2024-01-30T06:56:59;7.20;;;6.40;;
9102;SDS011;4587;51.434;6.788;2024-01-30T06:59:25;8.40;;;6.70;;
9102;SDS011;4587;51.434;6.788;2024-01-30T07:01:50;8.43;;;6.63;;
9102;SDS011;4587;51.434;6.788;2024-01-30T07:04:16;9.47;;;6.97;;
9102;SDS011;4587;51.434;6.788;2024-01-30T07:06:41;9.07;;;7.03;;
9102;SDS011;4587;51.434;6.788;2024-01-30T07:09:08;9.90;;;7.13;;
9102;SDS011;4587;51.434;6.788;2024-01-30T07:11:33;9.40;;;6.77;;
9102;SDS011;4587;51.434;6.788;2024-01-30T07:13:59;9.60;;;7.30;;
9102;SDS011;4587;51.434;6.788;2024-01-30T07:16:24;8.40;;;6.60;;
9102;SDS011;4587;51.434;6.788;2024-01-30T07:18:50;8.17;;;6.60;;
9102;SDS011;4587;51.434;6.788;2024-01-30T07:21:16;8.10;;;6.27;;
9102;SDS011;4587;51.434;6.788;2024-01-30T07:23:42;10.63;;;6.63;;
9102;SDS011;4587;51.434;6.788;2024-01-30T07:26:08;8.47;;;7.20;;
9102;SDS011;4587;51.434;6.788;2024-01-30T07:28:34;8.33;;;6.43;;
9102;SDS011;4587;51.434;6.788;2024-01-30T07:31:03;9.53;;;6.90;;
9102;SDS011;4587;51.434;6.788;2024-01-30T07:33:28;8.00;;;6.80;;
9102;SDS011;4587;51.434;6.788;2024-01-30T07:35:54;9.47;;;6.97;;
9102;SDS011;4587;51.434;6.788;2024-01-30T07:38:20;9.63;;;7.30;;
9102;SDS011;4587;51.434;6.788;2024-01-30T07:40:45;8.67;;;6.93;;
9102;SDS011;4587;51.434;6.788;2024-01-30T07:43:12;10.33;;;6.90;;
9102;SDS011;4587;51.434;6.788;2024-01-30T07:45:37;9.00;;;6.57;;
9102;SDS011;4587;51.434;6.788;2024-01-30T07:48:03;8.67;;;7.00;;
9102;SDS011;4587;51.434;6.788;2024-01-30T07:50:32;9.00;;;6.43;;
9102;SDS011;4587;51.434;6.788;2024-01-30T07:52:58;10.07;;;6.60;;
9102;SDS011;4587;51.434;6.788;2024-01-30T07:55:24;9.23;;;6.73;;
9102;SDS011;4587;51.434;6.788;2024-01-30T08:01:26;10.20;;;6.43;;
9102;SDS011;4587;51.434;6.788;2024-01-30T08:03:52;7.87;;;6.30;;
9102;SDS011;4587;51.434;6.788;2024-01-30T08:06:18;10.27;;;6.70;;
9102;SDS011;4587;51.434;6.788;2024-01-30T08:08:44;10.07;;;6.00;;
9102;SDS011;4587;51.434;6.788;2024-01-30T08:11:10;9.97;;;6.73;;
9102;SDS011;4587;51.434;6.788;2024-01-30T08:13:35;9.47;;;6.57;;
9102;SDS011;4587;51.434;6.788;2024-01-30T08:16:01;7.70;;;6.53;;
9102;SDS011;4587;51.434;6.788;2024-01-30T08:18:26;8.67;;;6.77;;
9102;SDS011;4587;51.434;6.788;2024-01-30T08:20:52;8.23;;;5.93;;
9102;SDS011;4587;51.434;6.788;2024-01-30T08:23:17;8.40;;;6.23;;
9102;SDS011;4587;51.434;6.788;2024-01-30T08:25:43;8.60;;;6.73;;
9102;SDS011;4587;51.434;6.788;2024-01-30T08:28:08;8.00;;;6.83;;
9102;SDS011;4587;51.434;6.788;2024-01-30T08:30:34;10.37;;;7.00;;
9102;SDS011;4587;51.434;6.788;2024-01-30T08:32:59;8.67;;;6.47;;
9102;SDS011;4587;51.434;6.788;2024-01-30T08:35:25;8.57;;;7.00;;
9102;SDS011;4587;51.434;6.788;2024-01-30T08:37:50;11.03;;;6.20;;
9102;SDS011;4587;51.434;6.788;2024-01-30T08:40:16;13.93;;;6.97;;
9102;SDS011;4587;51.434;6.788;2024-01-30T08:42:41;9.03;;;6.10;;
9102;SDS011;4587;51.434;6.788;2024-01-30T08:45:07;9.17;;;6.17;;
9102;SDS011;4587;51.434;6.788;2024-01-30T08:47:34;8.33;;;6.70;;
9102;SDS011;4587;51.434;6.788;2024-01-30T08:49:59;10.10;;;6.10;;
9102;SDS011;4587;51.434;6.788;2024-01-30T08:52:25;8.00;;;6.73;;
9102;SDS011;4587;51.434;6.788;2024-01-30T08:54:50;10.13;;;6.40;;
9102;SDS011;4587;51.434;6.788;2024-01-30T08:57:16;12.27;;;6.10;;
9102;SDS011;4587;51.434;6.788;2024-01-30T08:59:41;6.70;;;5.97;;
9102;SDS011;4587;51.434;6.788;2024-01-30T09:02:09;10.10;;;6.40;;
9102;SDS011;4587;51.434;6.788;2024-01-30T09:04:35;8.57;;;6.63;;
9102;SDS011;4587;51.434;6.788;2024-01-30T09:07:00;8.90;;;6.67;;
9102;SDS011;4587;51.434;6.788;2024-01-30T09:09:26;9.13;;;6.57;;
9102;SDS011;4587;51.434;6.788;2024-01-30T09:11:51;11.03;;;6.87;;
9102;SDS011;4587;51.434;6.788;2024-01-30T09:14:17;7.60;;;6.13;;
9102;SDS011;4587;51.434;6.788;2024-01-30T09:16:42;8.03;;;6.43;;
9102;SDS011;4587;51.434;6.788;2024-01-30T09:19:08;9.27;;;6.73;;
9102;SDS011;4587;51.434;6.788;2024-01-30T09:21:33;10.90;;;6.60;;
9102;SDS011;4587;51.434;6.788;2024-01-30T09:24:02;8.17;;;6.17;;
9102;SDS011;4587;51.434;6.788;2024-01-30T09:26:31;9.47;;;6.80;;
9102;SDS011;4587;51.434;6.788;2024-01-30T09:28:56;15.60;;;7.47;;
9102;SDS011;4587;51.434;6.788;2024-01-30T09:31:22;9.30;;;7.13;;
9102;SDS011;4587;51.434;6.788;2024-01-30T09:33:47;11.37;;;7.43;;
9102;SDS011;4587;51.434;6.788;2024-01-30T09:36:14;8.90;;;6.77;;
9102;SDS011;4587;51.434;6.788;2024-01-30T09:38:44;8.30;;;6.70;;
9102;SDS011;4587;51.434;6.788;2024-01-30T09:41:10;9.60;;;6.97;;
9102;SDS011;4587;51.434;6.788;2024-01-30T09:43:36;7.93;;;7.13;;
9102;SDS011;4587;51.434;6.788;2024-01-30T09:46:03;9.80;;;6.43;;
9102;SDS011;4587;51.434;6.788;2024-01-30T09:48:32;8.67;;;7.07;;
9102;SDS011;4587;51.434;6.788;2024-01-30T09:50:59;8.43;;;7.17;;
9102;SDS011;4587;51.434;6.788;2024-01-30T09:53:24;9.80;;;6.73;;
9102;SDS011;4587;51.434;6.788;2024-01-30T09:55:51;9.73;;;7.00;;
9102;SDS011;4587;51.434;6.788;2024-01-30T09:58:17;11.07;;;7.03;;
9102;SDS011;4587;51.434;6.788;2024-01-30T10:00:42;8.30;;;6.80;;
9102;SDS011;4587;51.434;6.788;2024-01-30T10:03:08;9.73;;;6.90;;
9102;SDS011;4587;51.434;6.788;2024-01-30T10:05:34;8.10;;;6.80;;
9102;SDS011;4587;51.434;6.788;2024-01-30T10:08:05;7.33;;;6.60;;
9102;SDS011;4587;51.434;6.788;2024-01-30T10:10:31;11.13;;;7.17;;
9102;SDS011;4587;51.434;6.788;2024-01-30T10:12:56;8.03;;;6.50;;
9102;SDS011;4587;51.434;6.788;2024-01-30T10:15:22;10.17;;;7.10;;
9102;SDS011;4587;51.434;6.788;2024-01-30T10:17:48;8.83;;;6.80;;
9102;SDS011;4587;51.434;6.788;2024-01-30T10:20:14;10.37;;;7.30;;
9102;SDS011;4587;51.434;6.788;2024-01-30T10:22:40;13.87;;;7.57;;
9102;SDS011;4587;51.434;6.788;2024-01-30T10:25:09;9.53;;;7.27;;
9102;SDS011;4587;51.434;6.788;2024-01-30T10:27:34;10.53;;;7.53;;
9102;SDS011;4587;51.434;6.788;2024-01-30T10:30:00;9.93;;;7.50;;
9102;SDS011;4587;51.434;6.788;2024-01-30T10:32:26;11.40;;;7.17;;
9102;SDS011;4587;51.434;6.788;2024-01-30T10:34:52;11.93;;;7.57;;
9102;SDS011;4587;51.434;6.788;2024-01-30T10:37:17;9.53;;;7.40;;
9102;SDS011;4587;51.434;6.788;2024-01-30T10:39:46;8.73;;;7.20;;
9102;SDS011;4587;51.434;6.788;2024-01-30T10:42:12;10.67;;;8.30;;
9102;SDS011;4587;51.434;6.788;2024-01-30T10:47:37;11.87;;;8.43;;
9102;SDS011;4587;51.434;6.788;2024-01-30T10:50:05;12.17;;;7.37;;
9102;SDS011;4587;51.434;6.788;2024-01-30T10:52:32;9.30;;;7.50;;
9102;SDS011;4587;51.434;6.788;2024-01-30T10:54:58;14.00;;;8.30;;
9102;SDS011;4587;51.434;6.788;2024-01-30T10:57:25;15.67;;;7.90;;
9102;SDS011;4587;51.434;6.788;2024-01-30T10:59:56;11.83;;;7.67;;
9102;SDS011;4587;51.434;6.788;2024-01-30T11:02:24;10.23;;;7.97;;
9102;SDS011;4587;51.434;6.788;2024-01-30T11:04:55;11.37;;;7.53;;
9102;SDS011;4587;51.434;6.788;2024-01-30T11:07:29;10.23;;;8.53;;
9102;SDS011;4587;51.434;6.788;2024-01-30T11:12:26;9.83;;;7.47;;
9102;SDS011;4587;51.434;6.788;2024-01-30T11:20:15;10.70;;;8.00;;
9102;SDS011;4587;51.434;6.788;2024-01-30T11:22:44;9.57;;;7.53;;
9102;SDS011;4587;51.434;6.788;2024-01-30T11:25:11;12.63;;;7.77;;
9102;SDS011;4587;51.434;6.788;2024-01-30T11:27:38;11.07;;;7.57;;
9102;SDS011;4587;51.434;6.788;2024-01-30T11:30:04;12.00;;;7.43;;
9102;SDS011;4587;51.434;6.788;2024-01-30T11:32:30;11.20;;;7.43;;
9102;SDS011;4587;51.434;6.788;2024-01-30T11:34:56;12.40;;;7.90;;
9102;SDS011;4587;51.434;6.788;2024-01-30T11:37:22;10.70;;;7.40;;
9102;SDS011;4587;51.434;6.788;2024-01-30T11:39:51;11.27;;;8.13;;
9102;SDS011;4587;51.434;6.788;2024-01-30T11:42:18;12.07;;;8.13;;
9102;SDS011;4587;51.434;6.788;2024-01-30T11:44:47;12.30;;;7.90;;
9102;SDS011;4587;51.434;6.788;2024-01-30T11:47:14;11.03;;;7.60;;
9102;SDS011;4587;51.434;6.788;2024-01-30T11:49:40;12.10;;;8.37;;
9102;SDS011;4587;51.434;6.788;2024-01-30T11:52:05;12.57;;;7.90;;
9102;SDS011;4587;51.434;6.788;2024-01-30T11:54:31;13.57;;;8.10;;
9102;SDS011;4587;51.434;6.788;2024-01-30T11:56:57;11.50;;;7.77;;
9102;SDS011;4587;51.434;6.788;2024-01-30T11:59:22;10.80;;;8.50;;
9102;SDS011;4587;51.434;6.788;2024-01-30T12:01:49;15.77;;;8.80;;
9102;SDS011;4587;51.434;6.788;2024-01-30T12:04:16;12.67;;;8.03;;
9102;SDS011;4587;51.434;6.788;2024-01-30T12:06:42;9.87;;;7.40;;
9102;SDS011;4587;51.434;6.788;2024-01-30T12:09:08;13.33;;;7.60;;
9102;SDS011;4587;51.434;6.788;2024-01-30T12:11:44;13.63;;;7.90;;
9102;SDS011;4587;51.434;6.788;2024-01-30T12:14:10;13.70;;;8.30;;
9102;SDS011;4587;51.434;6.788;2024-01-30T12:16:36;11.07;;;7.53;;
9102;SDS011;4587;51.434;6.788;2024-01-30T12:19:02;14.50;;;7.53;;
9102;SDS011;4587;51.434;6.788;2024-01-30T12:21:28;11.30;;;8.07;;
9102;SDS011;4587;51.434;6.788;2024-01-30T12:23:54;14.57;;;8.50;;
9102;SDS011;4587;51.434;6.788;2024-01-30T12:26:21;9.33;;;7.37;;
9102;SDS011;4587;51.434;6.788;2024-01-30T12:28:49;11.43;;;7.60;;
9102;SDS011;4587;51.434;6.788;2024-01-30T12:31:15;13.20;;;7.57;;
9102;SDS011;4587;51.434;6.788;2024-01-30T12:33:41;11.90;;;7.73;;
9102;SDS011;4587;51.434;6.788;2024-01-30T12:36:06;14.17;;;8.30;;
9102;SDS011;4587;51.434;6.788;2024-01-30T12:38:32;11.53;;;7.70;;
9102;SDS011;4587;51.434;6.788;2024-01-30T12:40:58;15.50;;;7.87;;
9102;SDS011;4587;51.434;6.788;2024-01-30T12:43:23;14.33;;;7.47;;
9102;SDS011;4587;51.434;6.788;2024-01-30T12:45:52;11.37;;;8.00;;
9102;SDS011;4587;51.434;6.788;2024-01-30T12:48:17;12.80;;;7.83;;
9102;SDS011;4587;51.434;6.788;2024-01-30T12:50:43;15.93;;;8.23;;
9102;SDS011;4587;51.434;6.788;2024-01-30T12:53:09;11.90;;;7.43;;
9102;SDS011;4587;51.434;6.788;2024-01-30T12:55:34;13.13;;;7.93;;
9102;SDS011;4587;51.434;6.788;2024-01-30T12:58:00;13.30;;;8.13;;
9102;SDS011;4587;51.434;6.788;2024-01-30T13:00:26;10.60;;;7.27;;
9102;SDS011;4587;51.434;6.788;2024-01-30T13:02:51;11.47;;;8.00;;
9102;SDS011;4587;51.434;6.788;2024-01-30T13:05:17;12.73;;;8.27;;
9102;SDS011;4587;51.434;6.788;2024-01-30T13:07:43;16.37;;;8.33;;
9102;SDS011;4587;51.434;6.788;2024-01-30T13:10:08;11.97;;;8.13;;
9102;SDS011;4587;51.434;6.788;2024-01-30T13:12:34;15.47;;;8.33;;
9102;SDS011;4587;51.434;6.788;2024-01-30T13:15:00;19.17;;;8.90;;
9102;SDS011;4587;51.434;6.788;2024-01-30T13:17:26;14.80;;;8.80;;
9102;SDS011;4587;51.434;6.788;2024-01-30T13:19:52;20.80;;;9.00;;
9102;SDS011;4587;51.434;6.788;2024-01-30T13:22:19;14.40;;;8.33;;
9102;SDS011;4587;51.434;6.788;2024-01-30T13:24:46;13.17;;;8.53;;
9102;SDS011;4587;51.434;6.788;2024-01-30T13:27:12;17.80;;;8.50;;
9102;SDS011;4587;51.434;6.788;2024-01-30T13:29:38;12.47;;;7.83;;
9102;SDS011;4587;51.434;6.788;2024-01-30T13:32:03;13.13;;;7.87;;
9102;SDS011;4587;51.434;6.788;2024-01-30T13:34:29;12.47;;;8.00;;
9102;SDS011;4587;51.434;6.788;2024-01-30T13:36:55;10.63;;;7.83;;
9102;SDS011;4587;51.434;6.788;2024-01-30T13:39:20;12.73;;;7.53;;
9102;SDS011;4587;51.434;6.788;2024-01-30T13:41:46;15.13;;;7.80;;
9102;SDS011;4587;51.434;6.788;2024-01-30T13:44:13;10.53;;;7.53;;
9102;SDS011;4587;51.434;6.788;2024-01-30T13:46:39;13.83;;;8.50;;
9102;SDS011;4587;51.434;6.788;2024-01-30T13:49:04;9.90;;;7.50;;
9102;SDS011;4587;51.434;6.788;2024-01-30T13:51:30;13.70;;;7.67;;
9102;SDS011;4587;51.434;6.788;2024-01-30T13:53:55;12.40;;;7.47;;
9102;SDS011;4587;51.434;6.788;2024-01-30T13:56:21;13.47;;;7.80;;
9102;SDS011;4587;51.434;6.788;2024-01-30T13:58:49;10.87;;;7.33;;
9102;SDS011;4587;51.434;6.788;2024-01-30T14:01:15;10.87;;;6.87;;
9102;SDS011;4587;51.434;6.788;2024-01-30T14:03:41;14.83;;;7.60;;
9102;SDS011;4587;51.434;6.788;2024-01-30T14:06:07;12.63;;;7.30;;
9102;SDS011;4587;51.434;6.788;2024-01-30T14:08:32;12.27;;;7.37;;
9102;SDS011;4587;51.434;6.788;2024-01-30T14:10:58;10.47;;;7.40;;
9102;SDS011;4587;51.434;6.788;2024-01-30T14:13:23;11.20;;;7.73;;
9102;SDS011;4587;51.434;6.788;2024-01-30T14:15:50;11.47;;;7.27;;
9102;SDS011;4587;51.434;6.788;2024-01-30T14:18:16;11.70;;;7.40;;
9102;SDS011;4587;51.434;6.788;2024-01-30T14:20:42;12.57;;;7.33;;
9102;SDS011;4587;51.434;6.788;2024-01-30T14:23:07;11.50;;;7.77;;
9102;SDS011;4587;51.434;6.788;2024-01-30T14:25:33;10.03;;;7.17;;
9102;SDS011;4587;51.434;6.788;2024-01-30T14:27:58;12.57;;;7.47;;
9102;SDS011;4587;51.434;6.788;2024-01-30T14:30:24;8.67;;;7.27;;
9102;SDS011;4587;51.434;6.788;2024-01-30T14:32:49;9.50;;;7.70;;
9102;SDS011;4587;51.434;6.788;2024-01-30T14:35:15;15.60;;;7.47;;
9102;SDS011;4587;51.434;6.788;2024-01-30T14:37:41;12.40;;;7.40;;
9102;SDS011;4587;51.434;6.788;2024-01-30T14:40:07;12.93;;;7.47;;
9102;SDS011;4587;51.434;6.788;2024-01-30T14:42:33;11.93;;;7.97;;
9102;SDS011;4587;51.434;6.788;2024-01-30T14:44:58;15.43;;;7.67;;
9102;SDS011;4587;51.434;6.788;2024-01-30T14:47:24;12.70;;;7.73;;
9102;SDS011;4587;51.434;6.788;2024-01-30T14:49:50;11.47;;;7.33;;
9102;SDS011;4587;51.434;6.788;2024-01-30T14:52:17;11.33;;;6.93;;
9102;SDS011;4587;51.434;6.788;2024-01-30T14:54:42;11.77;;;7.07;;
9102;SDS011;4587;51.434;6.788;2024-01-30T14:57:08;13.33;;;6.17;;
9102;SDS011;4587;51.434;6.788;2024-01-30T14:59:34;10.57;;;6.70;;
9102;SDS011;4587;51.434;6.788;2024-01-30T15:02:02;8.70;;;5.60;;
9102;SDS011;4587;51.434;6.788;2024-01-30T15:04:28;8.67;;;5.30;;
9102;SDS011;4587;51.434;6.788;2024-01-30T15:06:53;10.20;;;5.77;;
9102;SDS011;4587;51.434;6.788;2024-01-30T15:09:19;8.33;;;5.30;;
9102;SDS011;4587;51.434;6.788;2024-01-30T15:11:47;6.70;;;4.73;;
9102;SDS011;4587;51.434;6.788;2024-01-30T15:14:13;10.90;;;5.43;;